sensor_id;sensor_type;location;lat;lon;timestamp;pressure;altitude;pressure_sealevel;temperature;humidity
21664;BME280;10993;52.510;13.456;2023-02-10T00:04:07;56548.66;;;-146.93;49.73
21664;BME280;10993;52.510;13.456;2023-02-10T00:09:11;56593.19;;;-146.93;49.87
21664;BME280;10993;52.510;13.456;2023-02-10T00:14:14;56587.13;;;-146.93;49.82
21664;BME280;10993;52.510;13.456;2023-02-10T00:19:15;56568.88;;;-146.93;50.12
21664;BME280;10993;52.510;13.456;2023-02-10T00:24:17;56568.88;;;-146.93;50.18
21664;BME280;10993;52.510;13.456;2023-02-10T00:29:17;56564.84;;;-146.93;50.90
21664;BME280;10993;52.510;13.456;2023-02-10T00:34:18;56556.75;;;-146.93;51.74
21664;BME280;10993;52.510;13.456;2023-02-10T00:39:20;56585.09;;;-146.93;52.74
21664;BME280;10993;52.510;13.456;2023-02-10T00:44:20;56581.03;;;-146.93;53.09
21664;BME280;10993;52.510;13.456;2023-02-10T00:49:20;56585.09;;;-146.93;52.99
21664;BME280;10993;52.510;13.456;2023-02-10T00:54:22;56568.88;;;-146.93;52.86
21664;BME280;10993;52.510;13.456;2023-02-10T00:59:22;56564.84;;;-146.93;52.00
21664;BME280;10993;52.510;13.456;2023-02-10T01:04:23;56566.88;;;-146.93;52.32
21664;BME280;10993;52.510;13.456;2023-02-10T01:09:25;56554.72;;;-146.93;52.89
21664;BME280;10993;52.510;13.456;2023-02-10T01:14:25;56544.59;;;-146.93;52.49
21664;BME280;10993;52.510;13.456;2023-02-10T01:19:26;56595.22;;;-146.93;53.46
21664;BME280;10993;52.510;13.456;2023-02-10T01:24:28;56570.91;;;-146.93;54.22
21664;BME280;10993;52.510;13.456;2023-02-10T01:29:28;56581.03;;;-146.93;56.92
21664;BME280;10993;52.510;13.456;2023-02-10T01:34:29;56581.03;;;-146.93;57.68
21664;BME280;10993;52.510;13.456;2023-02-10T01:39:30;56597.25;;;-146.93;59.39
21664;BME280;10993;52.510;13.456;2023-02-10T01:50:22;56615.47;;;-146.93;62.08
21664;BME280;10993;52.510;13.456;2023-02-10T01:55:26;56609.38;;;-146.93;61.94
21664;BME280;10993;52.510;13.456;2023-02-10T02:00:29;56568.88;;;-146.93;62.26
21664;BME280;10993;52.510;13.456;2023-02-10T02:05:32;56479.81;;;-146.93;62.73
21664;BME280;10993;52.510;13.456;2023-02-10T02:10:48;56627.59;;;-146.93;63.75
21664;BME280;10993;52.510;13.456;2023-02-10T02:15:56;56496.00;;;-146.93;63.83
21664;BME280;10993;52.510;13.456;2023-02-10T02:21:24;56615.47;;;-146.93;64.18
21664;BME280;10993;52.510;13.456;2023-02-10T02:26:59;56609.38;;;-146.93;64.48
21664;BME280;10993;52.510;13.456;2023-02-10T02:32:10;56647.84;;;-146.93;64.98
21664;BME280;10993;52.510;13.456;2023-02-10T02:37:17;56860.47;;;-146.93;65.29
21664;BME280;10993;52.510;13.456;2023-02-10T02:42:21;56621.53;;;-146.93;64.84
21664;BME280;10993;52.510;13.456;2023-02-10T02:47:37;56664.06;;;-146.93;64.87
21664;BME280;10993;52.510;13.456;2023-02-10T02:52:53;56832.13;;;-146.93;64.53
21664;BME280;10993;52.510;13.456;2023-02-10T02:58:01;56601.28;;;-146.93;63.94
21664;BME280;10993;52.510;13.456;2023-02-10T03:03:04;56609.38;;;-146.93;63.23
21664;BME280;10993;52.510;13.456;2023-02-10T03:08:04;56579.00;;;-146.93;63.00
21664;BME280;10993;52.510;13.456;2023-02-10T03:13:04;56593.19;;;-146.93;63.25
21664;BME280;10993;52.510;13.456;2023-02-10T03:18:06;56603.31;;;-146.93;62.88
21664;BME280;10993;52.510;13.456;2023-02-10T03:23:07;56605.34;;;-146.93;63.01
21664;BME280;10993;52.510;13.456;2023-02-10T03:28:07;56577.00;;;-146.93;63.00
21664;BME280;10993;52.510;13.456;2023-02-10T03:33:09;56572.94;;;-146.93;62.78
21664;BME280;10993;52.510;13.456;2023-02-10T03:38:09;56577.00;;;-146.93;63.07
21664;BME280;10993;52.510;13.456;2023-02-10T03:43:10;56591.16;;;-146.93;64.18
21664;BME280;10993;52.510;13.456;2023-02-10T03:48:11;56579.00;;;-146.93;63.75
21664;BME280;10993;52.510;13.456;2023-02-10T03:53:12;56574.97;;;-146.93;63.59
21664;BME280;10993;52.510;13.456;2023-02-10T03:58:12;56605.34;;;-146.93;63.36
21664;BME280;10993;52.510;13.456;2023-02-10T04:03:14;56581.03;;;-146.93;63.21
21664;BME280;10993;52.510;13.456;2023-02-10T04:08:15;56530.41;;;-146.93;63.95
21664;BME280;10993;52.510;13.456;2023-02-10T04:13:16;56572.94;;;-146.93;63.83
21664;BME280;10993;52.510;13.456;2023-02-10T04:18:17;56564.84;;;-146.93;63.78
21664;BME280;10993;52.510;13.456;2023-02-10T04:23:18;56587.13;;;-146.93;63.99
21664;BME280;10993;52.510;13.456;2023-02-10T04:28:18;56570.91;;;-146.93;64.30
21664;BME280;10993;52.510;13.456;2023-02-10T04:33:21;56599.25;;;-146.93;63.94
21664;BME280;10993;52.510;13.456;2023-02-10T04:38:22;56516.25;;;-146.93;64.56
21664;BME280;10993;52.510;13.456;2023-02-10T04:43:22;56556.75;;;-146.93;64.50
21664;BME280;10993;52.510;13.456;2023-02-10T04:48:24;56560.78;;;-146.93;64.53
21664;BME280;10993;52.510;13.456;2023-02-10T04:53:24;56550.66;;;-146.93;64.98
21664;BME280;10993;52.510;13.456;2023-02-10T04:58:25;56585.09;;;-146.93;64.48
21664;BME280;10993;52.510;13.456;2023-02-10T05:03:26;56587.13;;;-146.93;65.10
21664;BME280;10993;52.510;13.456;2023-02-10T05:08:27;56609.38;;;-146.93;65.91
21664;BME280;10993;52.510;13.456;2023-02-10T05:13:27;56613.44;;;-146.93;66.26
21664;BME280;10993;52.510;13.456;2023-02-10T05:18:29;56568.88;;;-146.93;66.61
21664;BME280;10993;52.510;13.456;2023-02-10T05:23:29;56524.34;;;-146.93;66.83
21664;BME280;10993;52.510;13.456;2023-02-10T05:28:30;56548.66;;;-146.93;66.83
21664;BME280;10993;52.510;13.456;2023-02-10T05:33:31;56560.78;;;-146.93;67.01
21664;BME280;10993;52.510;13.456;2023-02-10T05:38:32;56568.88;;;-146.93;67.47
21664;BME280;10993;52.510;13.456;2023-02-10T05:43:32;56589.13;;;-146.93;67.94
21664;BME280;10993;52.510;13.456;2023-02-10T05:48:34;56587.13;;;-146.93;69.34
21664;BME280;10993;52.510;13.456;2023-02-10T05:53:34;56629.63;;;-146.93;70.20
21664;BME280;10993;52.510;13.456;2023-02-10T05:58:35;56615.47;;;-146.93;70.82
21664;BME280;10993;52.510;13.456;2023-02-10T06:03:36;56564.84;;;-146.93;71.95
21664;BME280;10993;52.510;13.456;2023-02-10T06:08:37;56613.44;;;-146.93;72.70
21664;BME280;10993;52.510;13.456;2023-02-10T06:13:37;56491.94;;;-146.93;73.40
21664;BME280;10993;52.510;13.456;2023-02-10T06:18:39;56589.13;;;-146.93;73.89
21664;BME280;10993;52.510;13.456;2023-02-10T06:23:39;56611.41;;;-146.93;74.51
21664;BME280;10993;52.510;13.456;2023-02-10T06:28:40;56581.03;;;-146.93;73.88
21664;BME280;10993;52.510;13.456;2023-02-10T06:33:41;56423.13;;;-146.93;74.63
21664;BME280;10993;52.510;13.456;2023-02-10T06:38:42;56587.13;;;-146.93;75.16
21664;BME280;10993;52.510;13.456;2023-02-10T06:43:42;56585.09;;;-146.93;74.77
21664;BME280;10993;52.510;13.456;2023-02-10T06:48:44;56552.69;;;-146.93;74.68
21664;BME280;10993;52.510;13.456;2023-02-10T06:53:44;56546.63;;;-146.93;74.70
21664;BME280;10993;52.510;13.456;2023-02-10T06:58:45;56544.59;;;-146.93;74.29
21664;BME280;10993;52.510;13.456;2023-02-10T07:03:47;56560.78;;;-146.93;74.31
21664;BME280;10993;52.510;13.456;2023-02-10T07:08:47;56568.88;;;-146.93;73.35
21664;BME280;10993;52.510;13.456;2023-02-10T07:13:50;56564.84;;;-146.93;72.18
21664;BME280;10993;52.510;13.456;2023-02-10T07:18:52;56556.75;;;-146.93;71.79
21664;BME280;10993;52.510;13.456;2023-02-10T07:23:52;56568.88;;;-146.93;70.86
21664;BME280;10993;52.510;13.456;2023-02-10T07:28:53;56560.78;;;-146.93;69.43
21664;BME280;10993;52.510;13.456;2023-02-10T07:33:54;56574.97;;;-146.93;67.62
21664;BME280;10993;52.510;13.456;2023-02-10T07:38:55;56556.75;;;-146.93;66.36
21664;BME280;10993;52.510;13.456;2023-02-10T07:43:55;56496.00;;;-146.93;63.34
21664;BME280;10993;52.510;13.456;2023-02-10T07:48:57;56548.66;;;-146.93;62.66
21664;BME280;10993;52.510;13.456;2023-02-10T07:53:57;56544.59;;;-146.93;62.79
21664;BME280;10993;52.510;13.456;2023-02-10T07:58:57;56532.44;;;-146.93;63.29
21664;BME280;10993;52.510;13.456;2023-02-10T08:04:00;56566.88;;;-146.93;64.14
21664;BME280;10993;52.510;13.456;2023-02-10T08:09:00;56516.25;;;-146.93;63.33
21664;BME280;10993;52.510;13.456;2023-02-10T08:14:01;56892.84;;;-146.93;63.62
21664;BME280;10993;52.510;13.456;2023-02-10T08:19:02;56500.06;;;-146.93;61.73
21664;BME280;10993;52.510;13.456;2023-02-10T08:24:03;56500.06;;;-146.93;58.87
21664;BME280;10993;52.510;13.456;2023-02-10T08:29:03;56544.59;;;-146.93;58.97
21664;BME280;10993;52.510;13.456;2023-02-10T08:34:05;56550.66;;;-146.93;58.49
21664;BME280;10993;52.510;13.456;2023-02-10T08:39:05;56500.06;;;-146.93;57.64
21664;BME280;10993;52.510;13.456;2023-02-10T08:44:06;56538.53;;;-146.93;57.71
21664;BME280;10993;52.510;13.456;2023-02-10T08:49:08;56568.88;;;-146.93;56.65
21664;BME280;10993;52.510;13.456;2023-02-10T08:54:09;56508.16;;;-146.93;54.93
21664;BME280;10993;52.510;13.456;2023-02-10T08:59:09;56536.50;;;-146.93;55.61
21664;BME280;10993;52.510;13.456;2023-02-10T09:04:11;56447.41;;;-146.93;53.31
21664;BME280;10993;52.510;13.456;2023-02-10T09:09:13;56449.44;;;-146.93;53.09
21664;BME280;10993;52.510;13.456;2023-02-10T09:14:14;56536.50;;;-146.93;53.80
21664;BME280;10993;52.510;13.456;2023-02-10T09:19:16;56550.66;;;-146.93;52.65
21664;BME280;10993;52.510;13.456;2023-02-10T09:24:16;56520.28;;;-146.93;52.21
21664;BME280;10993;52.510;13.456;2023-02-10T09:29:17;56548.66;;;-146.93;53.13
21664;BME280;10993;52.510;13.456;2023-02-10T09:34:19;56540.53;;;-146.93;52.49
21664;BME280;10993;52.510;13.456;2023-02-10T09:39:19;56589.13;;;-146.93;48.20
21664;BME280;10993;52.510;13.456;2023-02-10T09:44:21;56595.22;;;-146.93;44.28
21664;BME280;10993;52.510;13.456;2023-02-10T09:49:43;56690.38;;;-146.93;44.05
21664;BME280;10993;52.510;13.456;2023-02-10T09:54:45;56574.97;;;-146.93;44.79
21664;BME280;10993;52.510;13.456;2023-02-10T09:59:49;56615.47;;;-146.93;44.19
21664;BME280;10993;52.510;13.456;2023-02-10T10:04:53;56587.13;;;-146.93;44.35
21664;BME280;10993;52.510;13.456;2023-02-10T10:10:00;56568.88;;;-146.93;45.23
21664;BME280;10993;52.510;13.456;2023-02-10T10:15:03;56556.75;;;-146.93;48.40
21664;BME280;10993;52.510;13.456;2023-02-10T10:20:22;56530.41;;;-146.93;51.23
21664;BME280;10993;52.510;13.456;2023-02-10T10:25:47;56552.69;;;-146.93;52.16
21664;BME280;10993;52.510;13.456;2023-02-10T10:30:55;56572.94;;;-146.93;52.50
21664;BME280;10993;52.510;13.456;2023-02-10T10:35:58;56558.75;;;-146.93;53.69
21664;BME280;10993;52.510;13.456;2023-02-10T10:41:04;56540.53;;;-146.93;51.80
21664;BME280;10993;52.510;13.456;2023-02-10T10:46:10;56558.75;;;-146.93;50.39
21664;BME280;10993;52.510;13.456;2023-02-10T10:51:13;56530.41;;;-146.93;50.56
21664;BME280;10993;52.510;13.456;2023-02-10T10:56:20;56552.69;;;-146.93;49.73
21664;BME280;10993;52.510;13.456;2023-02-10T11:01:31;56548.66;;;-146.93;50.25
21664;BME280;10993;52.510;13.456;2023-02-10T11:06:36;56577.00;;;-146.93;50.33
21664;BME280;10993;52.510;13.456;2023-02-10T11:11:39;56544.59;;;-146.93;50.83
21664;BME280;10993;52.510;13.456;2023-02-10T11:16:41;56621.53;;;-146.93;48.39
21664;BME280;10993;52.510;13.456;2023-02-10T11:21:45;56686.31;;;-146.93;43.23
21664;BME280;10993;52.510;13.456;2023-02-10T11:26:57;56662.03;;;-146.93;42.32
21664;BME280;10993;52.510;13.456;2023-02-10T11:31:58;56662.03;;;-146.93;42.96
21664;BME280;10993;52.510;13.456;2023-02-10T11:37:12;56568.88;;;-146.93;44.87
21664;BME280;10993;52.510;13.456;2023-02-10T11:42:17;56621.53;;;-146.93;44.48
21664;BME280;10993;52.510;13.456;2023-02-10T11:47:20;56641.78;;;-146.93;43.80
21664;BME280;10993;52.510;13.456;2023-02-10T11:52:24;56710.63;;;-146.93;41.91
21664;BME280;10993;52.510;13.456;2023-02-10T11:57:36;56736.94;;;-146.93;38.98
21664;BME280;10993;52.510;13.456;2023-02-10T12:03:28;56738.97;;;-146.93;38.36
21664;BME280;10993;52.510;13.456;2023-02-10T12:08:38;56666.06;;;-146.93;40.31
21664;BME280;10993;52.510;13.456;2023-02-10T12:13:47;56629.63;;;-146.93;42.74
21664;BME280;10993;52.510;13.456;2023-02-10T12:18:56;56540.53;;;-146.93;45.04
21664;BME280;10993;52.510;13.456;2023-02-10T12:24:07;56611.41;;;-146.93;44.87
21664;BME280;10993;52.510;13.456;2023-02-10T12:29:24;56613.44;;;-146.93;45.36
21664;BME280;10993;52.510;13.456;2023-02-10T12:34:38;56633.69;;;-146.93;44.14
21664;BME280;10993;52.510;13.456;2023-02-10T12:39:51;56635.72;;;-146.93;44.46
21664;BME280;10993;52.510;13.456;2023-02-10T12:45:01;56613.44;;;-146.93;45.41
21664;BME280;10993;52.510;13.456;2023-02-10T12:50:29;56619.50;;;-146.93;45.54
21664;BME280;10993;52.510;13.456;2023-02-10T12:55:44;56574.97;;;-146.93;46.32
21664;BME280;10993;52.510;13.456;2023-02-10T13:00:52;56512.19;;;-146.93;47.94
21664;BME280;10993;52.510;13.456;2023-02-10T13:05:58;56560.78;;;-146.93;47.71
21664;BME280;10993;52.510;13.456;2023-02-10T13:11:08;56540.53;;;-146.93;49.38
21664;BME280;10993;52.510;13.456;2023-02-10T13:16:15;56548.66;;;-146.93;49.94
21664;BME280;10993;52.510;13.456;2023-02-10T13:21:19;56595.22;;;-146.93;51.21
21664;BME280;10993;52.510;13.456;2023-02-10T13:26:32;56639.75;;;-146.93;50.57
21664;BME280;10993;52.510;13.456;2023-02-10T13:31:54;56548.66;;;-146.93;50.03
21664;BME280;10993;52.510;13.456;2023-02-10T13:36:58;56453.47;;;-146.93;50.36
21664;BME280;10993;52.510;13.456;2023-02-10T13:42:07;56560.78;;;-146.93;52.52
21664;BME280;10993;52.510;13.456;2023-02-10T13:47:19;56514.22;;;-146.93;53.62
21664;BME280;10993;52.510;13.456;2023-02-10T13:52:26;56983.97;;;-146.93;52.76
21664;BME280;10993;52.510;13.456;2023-02-10T13:57:32;56548.66;;;-146.93;52.73
21664;BME280;10993;52.510;13.456;2023-02-10T14:02:33;56552.69;;;-146.93;52.48
21664;BME280;10993;52.510;13.456;2023-02-10T14:07:35;56528.41;;;-146.93;53.02
21664;BME280;10993;52.510;13.456;2023-02-10T14:12:39;56552.69;;;-146.93;52.89
21664;BME280;10993;52.510;13.456;2023-02-10T14:17:39;56550.66;;;-146.93;51.08
21664;BME280;10993;52.510;13.456;2023-02-10T14:22:40;56570.91;;;-146.93;51.54
21664;BME280;10993;52.510;13.456;2023-02-10T14:27:46;56613.44;;;-146.93;52.11
21664;BME280;10993;52.510;13.456;2023-02-10T14:32:50;56572.94;;;-146.93;52.22
21664;BME280;10993;52.510;13.456;2023-02-10T14:37:53;56550.66;;;-146.93;52.93
21664;BME280;10993;52.510;13.456;2023-02-10T14:42:56;56516.25;;;-146.93;53.13
21664;BME280;10993;52.510;13.456;2023-02-10T14:47:59;56556.75;;;-146.93;52.75
21664;BME280;10993;52.510;13.456;2023-02-10T14:53:01;56538.53;;;-146.93;51.60
21664;BME280;10993;52.510;13.456;2023-02-10T14:58:06;56538.53;;;-146.93;52.19
21664;BME280;10993;52.510;13.456;2023-02-10T15:03:11;56892.84;;;-146.93;53.81
21664;BME280;10993;52.510;13.456;2023-02-10T15:08:16;56528.41;;;-146.93;53.58
21664;BME280;10993;52.510;13.456;2023-02-10T15:13:24;56526.38;;;-146.93;54.66
21664;BME280;10993;52.510;13.456;2023-02-10T15:18:29;56530.41;;;-146.93;54.43
21664;BME280;10993;52.510;13.456;2023-02-10T15:23:31;56534.47;;;-146.93;55.27
21664;BME280;10993;52.510;13.456;2023-02-10T15:28:33;56524.34;;;-146.93;55.70
21664;BME280;10993;52.510;13.456;2023-02-10T15:33:36;56546.63;;;-146.93;56.24
21664;BME280;10993;52.510;13.456;2023-02-10T15:38:41;56532.44;;;-146.93;57.30
21664;BME280;10993;52.510;13.456;2023-02-10T15:43:47;56536.50;;;-146.93;57.76
21664;BME280;10993;52.510;13.456;2023-02-10T15:48:49;56487.91;;;-146.93;59.24
21664;BME280;10993;52.510;13.456;2023-02-10T15:53:50;56498.03;;;-146.93;60.89
21664;BME280;10993;52.510;13.456;2023-02-10T15:58:52;56542.56;;;-146.93;62.05
21664;BME280;10993;52.510;13.456;2023-02-10T16:03:52;56500.06;;;-146.93;62.85
21664;BME280;10993;52.510;13.456;2023-02-10T16:08:53;56481.84;;;-146.93;62.85
21664;BME280;10993;52.510;13.456;2023-02-10T16:13:55;56496.00;;;-146.93;63.94
21664;BME280;10993;52.510;13.456;2023-02-10T16:18:55;56493.97;;;-146.93;64.15
21664;BME280;10993;52.510;13.456;2023-02-10T16:23:55;56528.41;;;-146.93;65.53
21664;BME280;10993;52.510;13.456;2023-02-10T16:28:57;56532.44;;;-146.93;65.85
21664;BME280;10993;52.510;13.456;2023-02-10T16:33:57;56532.44;;;-146.93;66.17
21664;BME280;10993;52.510;13.456;2023-02-10T16:38:58;56532.44;;;-146.93;66.76
21664;BME280;10993;52.510;13.456;2023-02-10T16:43:59;56524.34;;;-146.93;67.01
21664;BME280;10993;52.510;13.456;2023-02-10T16:49:00;56548.66;;;-146.93;67.19
21664;BME280;10993;52.510;13.456;2023-02-10T16:54:00;56532.44;;;-146.93;67.88
21664;BME280;10993;52.510;13.456;2023-02-10T16:59:13;56524.34;;;-146.93;68.73
21664;BME280;10993;52.510;13.456;2023-02-10T17:04:13;56558.75;;;-146.93;69.66
21664;BME280;10993;52.510;13.456;2023-02-10T17:09:15;56528.41;;;-146.93;70.29
21664;BME280;10993;52.510;13.456;2023-02-10T17:14:17;56564.84;;;-146.93;70.68
21664;BME280;10993;52.510;13.456;2023-02-10T17:19:19;56366.44;;;-146.93;70.04
21664;BME280;10993;52.510;13.456;2023-02-10T17:24:20;56530.41;;;-146.93;69.54
21664;BME280;10993;52.510;13.456;2023-02-10T17:29:23;56544.59;;;-146.93;69.56
21664;BME280;10993;52.510;13.456;2023-02-10T17:34:24;56530.41;;;-146.93;69.95
21664;BME280;10993;52.510;13.456;2023-02-10T17:39:24;56496.00;;;-146.93;69.93
21664;BME280;10993;52.510;13.456;2023-02-10T17:44:26;56516.25;;;-146.93;68.91
21664;BME280;10993;52.510;13.456;2023-02-10T17:49:28;56524.34;;;-146.93;69.16
21664;BME280;10993;52.510;13.456;2023-02-10T17:54:29;56514.22;;;-146.93;68.78
21664;BME280;10993;52.510;13.456;2023-02-10T17:59:32;56528.41;;;-146.93;69.31
21664;BME280;10993;52.510;13.456;2023-02-10T18:04:32;56550.66;;;-146.93;68.70
21664;BME280;10993;52.510;13.456;2023-02-10T18:09:33;56560.78;;;-146.93;68.54
21664;BME280;10993;52.510;13.456;2023-02-10T18:14:35;56540.53;;;-146.93;67.81
21664;BME280;10993;52.510;13.456;2023-02-10T18:19:36;56540.53;;;-146.93;68.30
21664;BME280;10993;52.510;13.456;2023-02-10T18:24:38;56510.19;;;-146.93;68.49
21664;BME280;10993;52.510;13.456;2023-02-10T18:29:40;56532.44;;;-146.93;68.79
21664;BME280;10993;52.510;13.456;2023-02-10T18:34:41;56560.78;;;-146.93;68.76
21664;BME280;10993;52.510;13.456;2023-02-10T18:39:43;56439.31;;;-146.93;68.85
21664;BME280;10993;52.510;13.456;2023-02-10T18:44:45;56496.00;;;-146.93;69.02
21664;BME280;10993;52.510;13.456;2023-02-10T18:49:45;56548.66;;;-146.93;69.24
21664;BME280;10993;52.510;13.456;2023-02-10T18:54:46;56534.47;;;-146.93;68.56
21664;BME280;10993;52.510;13.456;2023-02-10T18:59:47;56542.56;;;-146.93;68.74
21664;BME280;10993;52.510;13.456;2023-02-10T19:04:48;56570.91;;;-146.93;69.33
21664;BME280;10993;52.510;13.456;2023-02-10T19:09:48;56522.31;;;-146.93;69.22
21664;BME280;10993;52.510;13.456;2023-02-10T19:14:50;56522.31;;;-146.93;68.75
21664;BME280;10993;52.510;13.456;2023-02-10T19:19:50;56538.53;;;-146.93;68.70
21664;BME280;10993;52.510;13.456;2023-02-10T19:24:51;56556.75;;;-146.93;68.95
21664;BME280;10993;52.510;13.456;2023-02-10T19:29:52;56566.88;;;-146.93;68.51
21664;BME280;10993;52.510;13.456;2023-02-10T19:34:53;56534.47;;;-146.93;68.58
21664;BME280;10993;52.510;13.456;2023-02-10T19:39:53;56530.41;;;-146.93;68.27
21664;BME280;10993;52.510;13.456;2023-02-10T19:44:55;56538.53;;;-146.93;68.25
21664;BME280;10993;52.510;13.456;2023-02-10T19:49:56;56467.66;;;-146.93;68.67
21664;BME280;10993;52.510;13.456;2023-02-10T19:54:56;56562.81;;;-146.93;68.38
21664;BME280;10993;52.510;13.456;2023-02-10T19:59:58;56544.59;;;-146.93;67.58
21664;BME280;10993;52.510;13.456;2023-02-10T20:04:58;56526.38;;;-146.93;68.52
21664;BME280;10993;52.510;13.456;2023-02-10T20:09:59;56512.19;;;-146.93;68.48
21664;BME280;10993;52.510;13.456;2023-02-10T20:15:00;56548.66;;;-146.93;68.63
21664;BME280;10993;52.510;13.456;2023-02-10T20:20:02;56520.28;;;-146.93;68.67
21664;BME280;10993;52.510;13.456;2023-02-10T20:25:03;56564.84;;;-146.93;68.09
21664;BME280;10993;52.510;13.456;2023-02-10T20:30:05;56526.38;;;-146.93;68.93
21664;BME280;10993;52.510;13.456;2023-02-10T20:35:05;56540.53;;;-146.93;68.81
21664;BME280;10993;52.510;13.456;2023-02-10T20:40:06;56540.53;;;-146.93;68.45
21664;BME280;10993;52.510;13.456;2023-02-10T20:45:08;56500.06;;;-146.93;68.70
21664;BME280;10993;52.510;13.456;2023-02-10T20:50:09;56520.28;;;-146.93;68.99
21664;BME280;10993;52.510;13.456;2023-02-10T20:55:10;56570.91;;;-146.93;68.95
21664;BME280;10993;52.510;13.456;2023-02-10T21:00:13;56560.78;;;-146.93;69.02
21664;BME280;10993;52.510;13.456;2023-02-10T21:05:13;56577.00;;;-146.93;69.18
21664;BME280;10993;52.510;13.456;2023-02-10T21:10:14;56562.81;;;-146.93;69.50
21664;BME280;10993;52.510;13.456;2023-02-10T21:15:16;56552.69;;;-146.93;69.61
21664;BME280;10993;52.510;13.456;2023-02-10T21:20:16;56585.09;;;-146.93;69.73
21664;BME280;10993;52.510;13.456;2023-02-10T21:25:17;56542.56;;;-146.93;68.70
21664;BME280;10993;52.510;13.456;2023-02-10T21:30:18;56591.16;;;-146.93;67.43
21664;BME280;10993;52.510;13.456;2023-02-10T21:35:19;56558.75;;;-146.93;67.47
21664;BME280;10993;52.510;13.456;2023-02-10T21:40:19;56540.53;;;-146.93;66.59
21664;BME280;10993;52.510;13.456;2023-02-10T21:45:21;57265.47;;;-146.93;66.42
21664;BME280;10993;52.510;13.456;2023-02-10T21:50:21;56560.78;;;-146.93;66.01
21664;BME280;10993;52.510;13.456;2023-02-10T21:55:22;56548.66;;;-146.93;65.87
21664;BME280;10993;52.510;13.456;2023-02-10T22:00:23;56556.75;;;-146.93;64.98
21664;BME280;10993;52.510;13.456;2023-02-10T22:05:24;56552.69;;;-146.93;65.30
21664;BME280;10993;52.510;13.456;2023-02-10T22:10:24;56564.84;;;-146.93;64.94
21664;BME280;10993;52.510;13.456;2023-02-10T22:15:26;56552.69;;;-146.93;65.30
21664;BME280;10993;52.510;13.456;2023-02-10T22:20:26;56506.13;;;-146.93;65.48
21664;BME280;10993;52.510;13.456;2023-02-10T22:25:27;56552.69;;;-146.93;65.41
21664;BME280;10993;52.510;13.456;2023-02-10T22:30:28;56568.88;;;-146.93;65.37
21664;BME280;10993;52.510;13.456;2023-02-10T22:35:29;56536.50;;;-146.93;65.87
21664;BME280;10993;52.510;13.456;2023-02-10T22:40:29;56560.78;;;-146.93;65.68
21664;BME280;10993;52.510;13.456;2023-02-10T22:45:31;56544.59;;;-146.93;65.18
21664;BME280;10993;52.510;13.456;2023-02-10T22:50:31;56560.78;;;-146.93;65.26
21664;BME280;10993;52.510;13.456;2023-02-10T22:55:32;56550.66;;;-146.93;65.26
21664;BME280;10993;52.510;13.456;2023-02-10T23:00:33;56546.63;;;-146.93;65.18
21664;BME280;10993;52.510;13.456;2023-02-10T23:05:39;56574.97;;;-146.93;64.62
21664;BME280;10993;52.510;13.456;2023-02-10T23:10:39;56566.88;;;-146.93;64.21
21664;BME280;10993;52.510;13.456;2023-02-10T23:15:41;56532.44;;;-146.93;64.25
21664;BME280;10993;52.510;13.456;2023-02-10T23:20:41;56564.84;;;-146.93;64.33
21664;BME280;10993;52.510;13.456;2023-02-10T23:25:45;56560.78;;;-146.93;64.56
21664;BME280;10993;52.510;13.456;2023-02-10T23:30:47;56562.81;;;-146.93;65.02
21664;BME280;10993;52.510;13.456;2023-02-10T23:35:49;56556.75;;;-146.93;65.16
21664;BME280;10993;52.510;13.456;2023-02-10T23:40:50;56483.84;;;-146.93;65.02
21664;BME280;10993;52.510;13.456;2023-02-10T23:45:52;56554.72;;;-146.93;65.50
21664;BME280;10993;52.510;13.456;2023-02-10T23:50:52;56552.69;;;-146.93;64.84
21664;BME280;10993;52.510;13.456;2023-02-10T23:55:52;56599.25;;;-146.93;65.30
